Terminal Aerodrome Forecast
Issued by NWS North Platte, NE

Home | Current Version | Previous Version | Text Only | Print | Product List | Glossary On
Versions: 1 2 3 4 5 6 7 8 9 10 11 12
823
FTUS43 KLBF 220520
TAFLBF
TAF
KLBF 220520Z 2206/2306 VRB03KT P6SM SKC
     FM221800 26014G21KT P6SM SKC
     FM230100 20004KT P6SM SCT250=

USA.gov is the U.S. government's official web portal to all federal, state and local government web resources and services.